createdAt,value
2018-05-08T00:01:20.151Z,3.90
2018-05-08T00:03:48.542Z,3.73
2018-05-08T00:06:17.579Z,3.97
2018-05-08T00:08:45.840Z,3.70
2018-05-08T00:11:14.598Z,3.20
2018-05-08T00:13:43.622Z,4.10
2018-05-08T00:16:11.890Z,4.10
2018-05-08T00:18:40.329Z,3.33
2018-05-08T00:21:08.710Z,3.80
2018-05-08T00:23:37.163Z,3.40
2018-05-08T00:26:05.517Z,3.93
2018-05-08T00:28:33.921Z,3.13
2018-05-08T00:31:02.287Z,3.57
2018-05-08T00:33:30.945Z,3.37
2018-05-08T00:35:59.375Z,3.83
2018-05-08T00:38:27.665Z,3.40
2018-05-08T00:40:56.125Z,3.07
2018-05-08T00:43:24.390Z,3.23
2018-05-08T00:45:52.864Z,3.30
2018-05-08T00:48:21.127Z,3.10
2018-05-08T00:50:49.418Z,3.53
2018-05-08T00:53:17.694Z,3.30
2018-05-08T00:55:46.065Z,3.37
2018-05-08T00:58:14.402Z,3.40
2018-05-08T01:00:43.082Z,3.53
2018-05-08T01:03:11.355Z,3.20
2018-05-08T01:05:39.614Z,2.90
2018-05-08T01:08:07.894Z,3.33
2018-05-08T01:10:36.657Z,3.20
2018-05-08T01:13:05.062Z,3.10
2018-05-08T01:15:33.438Z,3.03
2018-05-08T01:18:01.813Z,3.10
2018-05-08T01:20:30.088Z,2.87
2018-05-08T01:22:58.567Z,3.03
2018-05-08T01:25:26.830Z,3.77
2018-05-08T01:27:55.231Z,3.00
2018-05-08T01:30:23.681Z,3.20
2018-05-08T01:32:52.313Z,3.20
2018-05-08T01:35:21.068Z,3.07
2018-05-08T01:37:49.382Z,3.10
2018-05-08T01:40:17.648Z,3.30
2018-05-08T01:42:45.914Z,3.00
2018-05-08T01:45:14.242Z,2.90
2018-05-08T01:47:42.678Z,3.00
2018-05-08T01:50:10.982Z,2.87
2018-05-08T01:52:40.027Z,2.90
2018-05-08T01:55:08.704Z,2.90
2018-05-08T01:57:37.410Z,2.67
2018-05-08T02:00:05.797Z,2.90
2018-05-08T02:02:34.090Z,2.47
2018-05-08T02:05:02.533Z,2.60
2018-05-08T02:07:30.954Z,2.57
2018-05-08T02:09:59.319Z,2.87
2018-05-08T02:12:27.917Z,2.47
2018-05-08T02:14:56.310Z,2.83
2018-05-08T02:17:24.738Z,2.53
2018-05-08T02:19:53.002Z,2.60
2018-05-08T02:22:21.341Z,2.50
2018-05-08T02:24:49.612Z,2.10
2018-05-08T02:27:17.891Z,2.33
2018-05-08T02:29:46.321Z,2.53
2018-05-08T02:32:14.721Z,2.40
2018-05-08T02:34:43.111Z,2.60
2018-05-08T02:37:11.607Z,2.50
2018-05-08T02:39:40.102Z,2.77
2018-05-08T02:42:08.506Z,2.73
2018-05-08T02:44:36.770Z,2.50
2018-05-08T02:47:05.039Z,2.30
2018-05-08T02:49:33.339Z,2.33
2018-05-08T02:52:01.745Z,2.50
2018-05-08T02:54:30.113Z,2.60
2018-05-08T02:56:58.535Z,2.27
2018-05-08T02:59:26.790Z,2.90
2018-05-08T03:01:55.275Z,2.50
2018-05-08T03:04:23.945Z,2.57
2018-05-08T03:06:52.335Z,1.80
2018-05-08T03:09:20.726Z,2.10
2018-05-08T03:11:49.023Z,2.20
2018-05-08T03:14:17.762Z,2.10
2018-05-08T03:16:46.143Z,2.53
2018-05-08T03:19:14.449Z,2.40
2018-05-08T03:21:42.913Z,2.10
2018-05-08T03:24:11.236Z,2.23
2018-05-08T03:26:39.903Z,2.30
2018-05-08T03:29:08.271Z,2.00
2018-05-08T03:31:36.662Z,2.33
2018-05-08T03:34:05.129Z,2.70
2018-05-08T03:36:33.391Z,2.20
2018-05-08T03:39:01.802Z,2.07
2018-05-08T03:41:30.487Z,2.47
2018-05-08T03:43:58.751Z,2.50
2018-05-08T03:46:27.014Z,2.03
2018-05-08T03:48:55.306Z,2.03
2018-05-08T03:51:23.730Z,2.27
2018-05-08T03:53:52.082Z,2.30
2018-05-08T03:56:20.339Z,2.00
2018-05-08T03:58:48.607Z,2.40
2018-05-08T04:01:28.597Z,2.53
2018-05-08T04:04:09.451Z,2.20
2018-05-08T04:09:43.097Z,2.20
2018-05-08T04:12:11.612Z,2.20
2018-05-08T04:14:40.019Z,2.27
2018-05-08T04:17:08.373Z,2.17
2018-05-08T04:19:36.765Z,2.20
2018-05-08T04:22:05.058Z,2.10
2018-05-08T04:24:33.537Z,2.13
2018-05-08T04:27:01.914Z,2.13
2018-05-08T04:29:30.174Z,2.23
2018-05-08T04:31:58.687Z,2.00
2018-05-08T04:34:26.956Z,2.07
2018-05-08T04:36:55.233Z,2.07
2018-05-08T04:39:23.519Z,2.00
2018-05-08T04:41:51.775Z,1.90
2018-05-08T04:44:20.854Z,2.20
2018-05-08T04:46:49.265Z,1.93
2018-05-08T04:49:17.748Z,2.10
2018-05-08T04:51:46.307Z,1.80
2018-05-08T04:54:14.651Z,2.30
2018-05-08T04:56:43.070Z,2.17
2018-05-08T04:59:11.378Z,3.90
2018-05-08T05:01:39.830Z,3.60
2018-05-08T05:04:08.267Z,3.70
2018-05-08T05:06:36.651Z,5.00
2018-05-08T05:09:05.396Z,16.23
2018-05-08T05:11:33.981Z,35.10
2018-05-08T05:14:03.645Z,57.63
2018-05-08T05:16:33.519Z,77.63
2018-05-08T05:19:05.978Z,102.87
2018-05-08T05:21:34.242Z,109.60
2018-05-08T05:24:02.628Z,114.13
2018-05-08T05:26:31.737Z,108.73
2018-05-08T05:29:02.538Z,108.57
2018-05-08T05:31:31.179Z,96.53
2018-05-08T05:33:59.794Z,92.17
2018-05-08T05:36:39.257Z,93.23
2018-05-08T05:39:07.521Z,86.67
2018-05-08T05:41:36.037Z,77.33
2018-05-08T05:44:04.306Z,74.67
2018-05-08T05:46:32.708Z,70.13
2018-05-08T05:49:01.758Z,77.27
2018-05-08T05:51:30.086Z,74.20
2018-05-08T05:53:59.448Z,71.90
2018-05-08T05:56:27.706Z,69.33
2018-05-08T05:58:55.993Z,67.63
2018-05-08T06:01:24.496Z,66.53
2018-05-08T06:03:52.920Z,68.47
2018-05-08T06:06:21.311Z,66.67
2018-05-08T06:08:49.599Z,67.00
2018-05-08T06:11:18.355Z,68.13
2018-05-08T06:13:46.881Z,65.93
2018-05-08T06:16:15.449Z,56.97
2018-05-08T06:18:43.867Z,54.30
2018-05-08T06:21:12.152Z,55.20
2018-05-08T06:23:40.590Z,56.00
2018-05-08T06:26:09.281Z,55.00
2018-05-08T06:28:37.569Z,60.60
2018-05-08T06:31:06.055Z,55.77
2018-05-08T06:33:34.350Z,56.50
2018-05-08T06:36:02.699Z,55.00
2018-05-08T06:38:30.962Z,47.50
2018-05-08T06:40:59.286Z,40.57
2018-05-08T06:43:27.582Z,47.10
2018-05-08T06:45:56.051Z,45.57
2018-05-08T06:48:24.317Z,39.23
2018-05-08T06:50:53.018Z,34.93
2018-05-08T06:53:22.053Z,35.23
2018-05-08T06:55:50.582Z,33.07
2018-05-08T06:58:19.165Z,32.03
2018-05-08T07:00:47.439Z,30.63
2018-05-08T07:03:15.708Z,28.50
2018-05-08T07:05:43.993Z,29.37
2018-05-08T07:08:12.374Z,25.83
2018-05-08T07:10:40.794Z,24.37
2018-05-08T07:13:09.124Z,24.80
2018-05-08T07:15:37.821Z,22.33
2018-05-08T07:18:06.192Z,20.60
2018-05-08T07:20:34.458Z,19.87
2018-05-08T07:23:02.869Z,20.17
2018-05-08T07:25:31.262Z,19.57
2018-05-08T07:27:59.683Z,18.47
2018-05-08T07:30:28.374Z,17.23
2018-05-08T07:32:56.655Z,16.10
2018-05-08T07:35:25.370Z,16.60
2018-05-08T07:37:53.821Z,16.17
2018-05-08T07:40:22.192Z,16.90
2018-05-08T07:42:50.600Z,15.50
2018-05-08T07:45:18.864Z,14.93
2018-05-08T07:47:47.570Z,13.67
2018-05-08T07:50:16.035Z,12.93
2018-05-08T07:52:44.374Z,13.17
2018-05-08T07:55:14.825Z,13.63
2018-05-08T07:57:43.316Z,13.00
2018-05-08T08:00:11.989Z,12.03
2018-05-08T08:02:40.263Z,11.03
2018-05-08T08:05:08.695Z,10.93
2018-05-08T08:07:37.733Z,10.60
2018-05-08T08:10:06.130Z,9.90
2018-05-08T08:12:34.430Z,10.47
2018-05-08T08:15:03.205Z,9.67
2018-05-08T08:17:31.504Z,9.17
2018-05-08T08:19:59.767Z,8.30
2018-05-08T08:22:28.074Z,8.43
2018-05-08T08:24:56.443Z,8.07
2018-05-08T08:27:25.452Z,8.40
2018-05-08T08:29:53.811Z,7.90
2018-05-08T08:32:22.076Z,6.73
2018-05-08T08:34:50.827Z,7.37
2018-05-08T08:37:19.198Z,7.23
2018-05-08T08:39:47.607Z,6.53
2018-05-08T08:42:16.002Z,6.67
2018-05-08T08:44:45.210Z,5.60
2018-05-08T08:47:13.498Z,5.37
2018-05-08T08:49:41.961Z,9.27
2018-05-08T08:52:10.317Z,5.97
2018-05-08T08:54:38.730Z,5.20
2018-05-08T08:57:06.991Z,5.00
2018-05-08T08:59:35.523Z,5.23
2018-05-08T09:02:04.155Z,4.57
2018-05-08T09:04:32.662Z,4.87
2018-05-08T09:07:01.003Z,5.10
2018-05-08T09:09:29.306Z,4.60
2018-05-08T09:11:57.722Z,4.23
2018-05-08T09:14:26.110Z,4.53
2018-05-08T09:16:54.504Z,4.43
2018-05-08T09:19:22.817Z,4.90
2018-05-08T09:21:51.078Z,4.77
2018-05-08T09:24:19.599Z,4.53
2018-05-08T09:26:48.618Z,4.23
2018-05-08T09:29:17.079Z,4.37
2018-05-08T09:31:45.327Z,4.90
2018-05-08T09:34:13.803Z,4.53
2018-05-08T09:36:42.087Z,4.40
2018-05-08T09:39:10.565Z,4.27
2018-05-08T09:41:38.901Z,4.10
2018-05-08T09:44:07.606Z,4.27
2018-05-08T09:46:36.013Z,4.60
2018-05-08T09:49:04.414Z,3.80
2018-05-08T09:51:33.039Z,4.20
2018-05-08T09:54:01.721Z,3.53
2018-05-08T09:56:30.125Z,4.67
2018-05-08T09:58:58.515Z,3.90
2018-05-08T10:01:27.165Z,4.07
2018-05-08T10:03:55.863Z,4.17
2018-05-08T10:06:24.132Z,4.00
2018-05-08T10:08:52.430Z,3.97
2018-05-08T10:11:20.703Z,4.47
2018-05-08T10:13:49.026Z,3.97
2018-05-08T10:16:18.064Z,4.10
2018-05-08T10:18:46.384Z,4.13
2018-05-08T10:21:15.076Z,4.33
2018-05-08T10:23:43.514Z,3.57
2018-05-08T10:26:11.805Z,3.67
2018-05-08T10:28:40.213Z,4.10
2018-05-08T10:31:09.258Z,4.17
2018-05-08T10:33:37.567Z,3.60
2018-05-08T10:36:06.010Z,3.80
2018-05-08T10:38:34.261Z,3.70
2018-05-08T10:41:02.766Z,3.47
2018-05-08T10:43:31.051Z,3.73
2018-05-08T10:45:59.314Z,3.57
2018-05-08T10:48:27.581Z,3.67
2018-05-08T10:50:55.914Z,3.73
2018-05-08T10:53:24.660Z,3.50
2018-05-08T10:55:53.055Z,3.37
2018-05-08T10:58:21.433Z,3.27
2018-05-08T11:00:49.840Z,3.57
2018-05-08T11:03:18.131Z,3.27
2018-05-08T11:05:46.385Z,2.83
2018-05-08T11:08:14.695Z,2.83
2018-05-08T11:10:43.253Z,3.23
2018-05-08T11:13:11.539Z,3.17
2018-05-08T11:15:40.234Z,3.63
2018-05-08T11:18:08.706Z,3.30
2018-05-08T11:20:37.137Z,3.10
2018-05-08T11:23:05.398Z,2.87
2018-05-08T11:25:33.927Z,2.67
2018-05-08T11:28:02.424Z,2.80
2018-05-08T11:30:30.689Z,3.10
2018-05-08T11:32:59.035Z,2.40
2018-05-08T11:35:27.299Z,2.30
2018-05-08T11:37:55.653Z,2.50
2018-05-08T11:40:23.875Z,2.50
2018-05-08T11:52:33.272Z,1.87
2018-05-08T11:55:01.996Z,2.33
2018-05-08T11:57:30.475Z,1.90
2018-05-08T11:59:58.947Z,2.43
2018-05-08T12:02:27.205Z,2.20
2018-05-08T12:04:55.635Z,2.20
2018-05-08T12:07:24.666Z,2.00
2018-05-08T12:09:53.070Z,2.10
2018-05-08T12:12:21.404Z,6.10
2018-05-08T12:14:50.442Z,2.57
2018-05-08T12:17:18.689Z,2.70
2018-05-08T12:19:47.226Z,2.23
2018-05-08T12:22:15.465Z,2.40
2018-05-08T12:24:43.938Z,2.03
2018-05-08T12:27:12.211Z,2.63
2018-05-08T12:29:40.470Z,2.40
2018-05-08T12:32:09.022Z,2.27
2018-05-08T12:34:37.474Z,2.10
2018-05-08T12:37:05.847Z,2.40
2018-05-08T12:39:34.665Z,1.80
2018-05-08T12:42:03.001Z,2.20
2018-05-08T12:44:31.231Z,2.20
2018-05-08T12:46:59.494Z,2.37
2018-05-08T12:49:28.957Z,2.30
2018-05-08T12:51:57.367Z,2.37
2018-05-08T12:54:26.030Z,2.50
2018-05-08T12:56:54.422Z,2.70
2018-05-08T12:59:22.687Z,2.47
2018-05-08T13:01:51.183Z,2.20
2018-05-08T13:04:19.647Z,2.37
2018-05-08T13:06:48.231Z,2.07
2018-05-08T13:09:16.501Z,2.40
2018-05-08T13:11:44.981Z,1.90
2018-05-08T13:14:13.400Z,2.00
2018-05-08T13:16:41.671Z,2.30
2018-05-08T13:19:10.142Z,2.10
2018-05-08T13:21:38.453Z,2.00
2018-05-08T13:24:06.904Z,2.17
2018-05-08T13:26:35.155Z,2.20
2018-05-08T13:29:03.558Z,2.63
2018-05-08T13:31:31.823Z,2.43
2018-05-08T13:34:00.335Z,2.40
2018-05-08T13:36:29.026Z,2.43
2018-05-08T13:38:57.786Z,2.10
2018-05-08T13:41:26.086Z,2.13
2018-05-08T13:43:54.367Z,2.50
2018-05-08T13:46:22.916Z,2.40
2018-05-08T13:48:51.238Z,2.23
2018-05-08T13:51:20.285Z,2.40
2018-05-08T13:53:48.751Z,2.43
2018-05-08T13:56:17.009Z,2.40
2018-05-08T13:58:45.435Z,2.23
2018-05-08T14:01:13.843Z,2.33
2018-05-08T14:03:42.108Z,2.20
2018-05-08T14:06:10.824Z,2.33
2018-05-08T14:08:40.063Z,2.17
2018-05-08T14:11:08.537Z,2.73
2018-05-08T14:13:36.929Z,2.47
2018-05-08T14:16:05.314Z,2.40
2018-05-08T14:18:33.631Z,2.00
2018-05-08T14:21:02.071Z,2.57
2018-05-08T14:23:30.373Z,2.30
2018-05-08T14:25:58.673Z,2.67
2018-05-08T14:28:27.143Z,2.50
2018-05-08T14:30:55.415Z,2.27
2018-05-08T14:33:23.963Z,2.60
2018-05-08T14:35:52.363Z,2.30
2018-05-08T14:38:20.634Z,2.20
2018-05-08T14:40:49.038Z,2.37
2018-05-08T14:43:17.485Z,2.47
2018-05-08T14:45:45.893Z,2.90
2018-05-08T14:48:14.168Z,2.20
2018-05-08T14:50:42.877Z,2.20
2018-05-08T14:53:11.911Z,2.80
2018-05-08T14:55:40.260Z,2.70
2018-05-08T14:58:09.278Z,2.20
2018-05-08T15:00:37.680Z,2.60
2018-05-08T15:03:06.041Z,2.83
2018-05-08T15:05:34.438Z,2.30
2018-05-08T15:08:02.710Z,2.80
2018-05-08T15:10:30.967Z,2.47
2018-05-08T15:12:59.221Z,2.70
2018-05-08T15:15:27.577Z,2.40
2018-05-08T15:17:55.821Z,2.50
2018-05-08T15:20:24.350Z,2.50
2018-05-08T15:22:53.382Z,2.50
2018-05-08T15:25:21.690Z,2.20
2018-05-08T15:27:50.093Z,2.47
2018-05-08T15:30:19.134Z,2.50
2018-05-08T15:32:47.814Z,2.77
2018-05-08T15:35:16.223Z,2.57
2018-05-08T15:37:44.514Z,3.00
2018-05-08T15:40:13.257Z,2.50
2018-05-08T15:42:41.616Z,2.53
2018-05-08T15:45:09.977Z,2.40
2018-05-08T15:47:38.703Z,2.20
2018-05-08T15:50:07.359Z,2.30
2018-05-08T15:52:36.090Z,2.77
2018-05-08T15:55:04.499Z,2.50
2018-05-08T15:57:32.756Z,2.60
2018-05-08T16:00:01.165Z,2.43
2018-05-08T16:02:29.443Z,2.23
2018-05-08T16:04:57.734Z,2.60
2018-05-08T16:07:26.078Z,2.20
2018-05-08T16:09:54.684Z,3.00
2018-05-08T16:12:23.361Z,2.50
2018-05-08T16:14:51.819Z,2.63
2018-05-08T16:17:20.139Z,2.60
2018-05-08T16:19:48.578Z,2.80
2018-05-08T16:22:16.842Z,2.87
2018-05-08T16:24:45.338Z,2.83
2018-05-08T16:27:13.614Z,41.43
2018-05-08T16:29:41.887Z,3.23
2018-05-08T16:32:10.142Z,2.97
2018-05-08T16:34:38.456Z,2.77
2018-05-08T16:37:06.850Z,2.70
2018-05-08T16:39:35.568Z,2.93
2018-05-08T16:42:03.982Z,2.93
2018-05-08T16:44:32.263Z,3.30
2018-05-08T16:47:00.739Z,2.60
2018-05-08T16:49:29.063Z,2.50
2018-05-08T16:51:58.095Z,2.87
2018-05-08T16:54:26.782Z,2.80
2018-05-08T16:56:55.169Z,2.70
2018-05-08T16:59:23.554Z,2.77
2018-05-08T17:01:51.820Z,2.80
2018-05-08T17:04:20.269Z,3.30
2018-05-08T17:06:48.963Z,2.90
2018-05-08T17:09:17.371Z,3.00
2018-05-08T17:11:47.062Z,3.43
2018-05-08T17:14:15.721Z,3.00
2018-05-08T17:16:44.822Z,2.97
2018-05-08T17:19:13.090Z,3.30
2018-05-08T17:21:42.520Z,3.30
2018-05-08T17:24:11.017Z,3.03
2018-05-08T17:26:39.473Z,2.90
2018-05-08T17:29:07.811Z,2.90
2018-05-08T17:31:36.165Z,3.07
2018-05-08T17:34:04.570Z,3.00
2018-05-08T17:36:33.773Z,3.03
2018-05-08T17:39:02.363Z,2.70
2018-05-08T17:41:33.242Z,3.07
2018-05-08T17:44:02.398Z,2.90
2018-05-08T17:46:36.975Z,2.63
2018-05-08T17:49:06.411Z,2.80
2018-05-08T17:51:36.611Z,2.80
2018-05-08T17:54:06.014Z,2.90
2018-05-08T17:56:35.025Z,4.03
2018-05-08T17:59:07.978Z,10.80
2018-05-08T18:01:36.344Z,23.60
2018-05-08T18:04:04.812Z,39.00
2018-05-08T18:06:33.154Z,39.53
2018-05-08T18:09:01.851Z,45.83
2018-05-08T18:11:30.856Z,44.83
2018-05-08T18:14:00.110Z,44.03
2018-05-08T18:16:28.758Z,46.00
2018-05-08T18:18:57.199Z,42.03
2018-05-08T18:21:25.466Z,40.77
2018-05-08T18:23:54.243Z,40.87
2018-05-08T18:26:22.641Z,39.57
2018-05-08T18:28:51.139Z,40.10
2018-05-08T18:31:19.391Z,37.47
2018-05-08T18:33:48.012Z,36.73
2018-05-08T18:36:16.466Z,36.93
2018-05-08T18:38:44.794Z,35.33
2018-05-08T18:41:13.470Z,35.10
2018-05-08T18:43:42.523Z,36.43
2018-05-08T18:46:10.985Z,38.73
2018-05-08T18:48:39.259Z,42.03
2018-05-08T18:51:07.682Z,38.23
2018-05-08T18:53:36.147Z,34.90
2018-05-08T18:56:04.417Z,27.80
2018-05-08T18:58:32.703Z,23.73
2018-05-08T19:01:01.010Z,19.17
2018-05-08T19:03:30.255Z,19.17
2018-05-08T19:05:58.506Z,19.37
2018-05-08T19:08:26.860Z,18.33
2018-05-08T19:11:00.977Z,16.57
2018-05-08T19:13:29.236Z,22.30
2018-05-08T19:16:04.335Z,20.13
2018-05-08T19:18:38.293Z,21.80
2018-05-08T19:21:06.574Z,18.93
2018-05-08T19:23:35.031Z,20.47
2018-05-08T19:26:03.310Z,18.43
2018-05-08T19:28:37.334Z,19.20
2018-05-08T19:31:06.388Z,17.60
2018-05-08T19:33:34.686Z,18.10
2018-05-08T19:36:08.667Z,18.20
2018-05-08T19:38:36.954Z,18.13
2018-05-08T19:41:05.258Z,17.37
2018-05-08T19:43:33.712Z,18.87
2018-05-08T19:46:02.379Z,17.07
2018-05-08T19:48:30.804Z,17.83
2018-05-08T19:51:00.087Z,17.57
2018-05-08T19:53:28.499Z,16.57
2018-05-08T19:55:57.730Z,16.63
2018-05-08T19:58:26.074Z,17.17
2018-05-08T20:00:55.119Z,16.90
2018-05-08T20:03:23.558Z,16.50
2018-05-08T20:05:51.895Z,17.30
2018-05-08T20:08:20.518Z,17.17
2018-05-08T20:10:48.995Z,16.63
2018-05-08T20:13:17.283Z,15.90
2018-05-08T20:15:45.854Z,15.13
2018-05-08T20:18:14.150Z,16.10
2018-05-08T20:20:43.332Z,16.37
2018-05-08T20:23:12.711Z,15.53
2018-05-08T20:25:41.016Z,15.90
2018-05-08T20:28:10.061Z,15.60
2018-05-08T20:30:38.458Z,16.00
2018-05-08T20:33:07.461Z,16.10
2018-05-08T20:35:35.779Z,15.43
2018-05-08T20:38:04.825Z,15.43
2018-05-08T20:40:33.176Z,13.83
2018-05-08T20:43:01.863Z,15.17
2018-05-08T20:45:30.283Z,15.17
2018-05-08T20:47:58.587Z,13.53
2018-05-08T20:50:27.034Z,15.10
2018-05-08T20:52:55.343Z,15.30
2018-05-08T20:55:23.740Z,13.67
2018-05-08T20:57:52.222Z,13.43
2018-05-08T21:00:20.544Z,14.33
2018-05-08T21:02:49.218Z,13.90
2018-05-08T21:05:17.650Z,13.63
2018-05-08T21:07:45.975Z,13.77
2018-05-08T21:10:14.666Z,13.30
2018-05-08T21:12:43.067Z,13.20
2018-05-08T21:15:11.355Z,12.80
2018-05-08T21:17:39.878Z,13.87
2018-05-08T21:20:08.199Z,12.73
2018-05-08T21:22:36.591Z,12.80
2018-05-08T21:25:04.972Z,12.17
2018-05-08T21:27:39.006Z,14.07
2018-05-08T21:30:12.853Z,12.97
2018-05-08T21:32:41.733Z,13.60
2018-05-08T21:35:10.147Z,12.10
2018-05-08T21:37:38.462Z,11.60
2018-05-08T21:40:06.920Z,13.27
2018-05-08T21:42:35.274Z,12.87
2018-05-08T21:45:03.894Z,12.63
2018-05-08T21:47:32.354Z,12.83
2018-05-08T21:50:00.734Z,12.20
2018-05-08T21:52:29.004Z,11.67
2018-05-08T21:54:57.488Z,11.53
2018-05-08T21:57:25.854Z,12.03
2018-05-08T21:59:54.237Z,11.77
2018-05-08T22:02:22.518Z,11.90
2018-05-08T22:04:50.982Z,11.37
2018-05-08T22:07:19.388Z,11.33
2018-05-08T22:09:47.659Z,11.43
2018-05-08T22:12:16.142Z,11.17
2018-05-08T22:14:44.546Z,10.53
2018-05-08T22:17:12.817Z,10.63
2018-05-08T22:19:41.563Z,11.80
2018-05-08T22:22:09.973Z,11.07
2018-05-08T22:24:38.331Z,11.43
2018-05-08T22:27:06.660Z,10.73
2018-05-08T22:29:35.733Z,11.03
2018-05-08T22:32:04.152Z,10.17
2018-05-08T22:34:33.331Z,10.57
2018-05-08T22:37:02.610Z,10.73
2018-05-08T22:39:31.078Z,10.40
2018-05-08T22:41:59.375Z,10.37
2018-05-08T22:44:28.424Z,10.07
2018-05-08T22:46:56.710Z,10.07
2018-05-08T22:49:25.132Z,10.20
2018-05-08T22:51:54.192Z,10.37
2018-05-08T22:54:22.466Z,9.57
2018-05-08T22:56:50.881Z,9.80
2018-05-08T22:59:19.459Z,8.70
2018-05-08T23:01:47.706Z,9.60
2018-05-08T23:04:16.107Z,9.93
2018-05-08T23:06:44.401Z,9.43
2018-05-08T23:09:12.814Z,9.97
2018-05-08T23:11:41.223Z,9.93
2018-05-08T23:14:09.515Z,9.13
2018-05-08T23:16:38.274Z,9.37
2018-05-08T23:19:06.966Z,9.23
2018-05-08T23:21:35.365Z,8.43
2018-05-08T23:24:03.739Z,9.27
2018-05-08T23:26:32.123Z,8.27
2018-05-08T23:29:00.439Z,9.43
2018-05-08T23:31:28.876Z,8.40
2018-05-08T23:33:57.232Z,8.13
2018-05-08T23:36:25.618Z,8.97
2018-05-08T23:38:54.008Z,7.87
2018-05-08T23:41:22.334Z,8.50
2018-05-08T23:43:51.067Z,8.43
2018-05-08T23:46:19.475Z,8.40
2018-05-08T23:48:47.759Z,8.27
2018-05-08T23:51:16.213Z,8.63
2018-05-08T23:53:44.517Z,8.10
2018-05-08T23:56:12.926Z,7.60
2018-05-08T23:58:41.693Z,7.70
